Time;durP1;ratioP1;P1;durP2;ratioP2;P2;SDS_P1;SDS_P2;PMS_P1;PMS_P2;Temp;Humidity;BMP_temperature;BMP_pressure;BME280_temperature;BME280_humidity;BME280_pressure;Samples;Min_cycle;Max_cycle;Signal;HPM_P1;HPM_P2
2022/06/10 00:02:08;;;;;;;3.27;2.97;;;14.90;99.90;;;;;;5081578;28;20393;-83
2022/06/10 00:04:53;;;;;;;4.00;2.87;;;14.90;99.90;;;;;;5082070;28;20381;-82
2022/06/10 00:07:38;;;;;;;2.93;2.63;;;14.70;99.90;;;;;;5053181;28;20392;-82
2022/06/10 00:10:24;;;;;;;2.60;2.40;;;14.60;99.90;;;;;;5078171;28;20412;-82
2022/06/10 00:13:09;;;;;;;4.20;2.90;;;14.60;99.90;;;;;;5080070;28;20754;-82
2022/06/10 00:15:54;;;;;;;3.67;3.37;;;14.70;99.90;;;;;;5079462;28;20401;-83
2022/06/10 00:18:40;;;;;;;4.00;3.33;;;14.70;99.90;;;;;;5079356;28;20751;-82
2022/06/10 00:21:25;;;;;;;3.47;3.17;;;14.70;99.90;;;;;;5080250;28;20381;-82
2022/06/10 00:24:09;;;;;;;2.80;2.57;;;14.50;99.90;;;;;;5079444;28;20389;-82
2022/06/10 00:26:53;;;;;;;2.50;2.23;;;14.30;99.90;;;;;;5079680;28;20409;-82
2022/06/10 00:29:38;;;;;;;3.10;2.77;;;14.20;99.90;;;;;;5079492;28;20439;-82
2022/06/10 00:32:23;;;;;;;3.10;2.70;;;14.20;99.90;;;;;;5078586;28;20446;-83
2022/06/10 00:35:08;;;;;;;3.70;3.40;;;14.20;99.90;;;;;;5078941;28;20486;-82
2022/06/10 00:37:53;;;;;;;3.53;3.20;;;14.30;99.90;;;;;;5079291;28;20888;-82
2022/06/10 00:40:49;;;;;;;4.00;3.00;;;14.20;99.90;;;;;;5078422;28;20805;-82
2022/06/10 00:43:35;;;;;;;2.47;2.27;;;14.10;99.90;;;;;;5078943;28;20413;-82
2022/06/10 00:46:36;;;;;;;3.57;2.40;;;13.90;99.90;;;;;;5078770;28;20474;-82
2022/06/10 00:49:21;;;;;;;5.50;3.07;;;14.00;99.90;;;;;;5078404;28;20475;-82
2022/06/10 00:52:11;;;;;;;2.90;2.70;;;14.10;99.90;;;;;;5078707;28;20431;-82
2022/06/10 00:54:57;;;;;;;4.63;3.40;;;13.90;99.90;;;;;;5078402;28;20435;-82
2022/06/10 00:57:46;;;;;;;3.13;2.70;;;13.70;99.90;;;;;;5078275;28;20455;-82
2022/06/10 01:00:30;;;;;;;3.53;3.23;;;13.70;99.90;;;;;;5063060;28;20456;-82
2022/06/10 01:03:15;;;;;;;4.30;2.70;;;13.70;99.90;;;;;;5078500;28;20394;-83
2022/06/10 01:06:00;;;;;;;3.80;2.60;;;13.70;99.90;;;;;;5077936;28;20377;-82
2022/06/10 01:08:46;;;;;;;5.63;3.10;;;13.70;99.90;;;;;;5079479;28;20385;-82
2022/06/10 01:12:00;;;;;;;2.97;2.77;;;13.50;99.90;;;;;;5078305;28;20397;-82
2022/06/10 01:15:02;;;;;;;4.90;3.40;;;13.80;99.90;;;;;;5078676;28;20475;-82
2022/06/10 01:18:06;;;;;;;3.57;3.00;;;13.90;99.90;;;;;;5078332;28;20388;-82
2022/06/10 01:21:17;;;;;;;3.80;3.40;;;13.70;99.90;;;;;;5078245;28;21013;-82
2022/06/10 01:24:36;;;;;;;2.60;2.40;;;13.60;99.90;;;;;;5066090;28;20435;-83
2022/06/10 01:27:49;;;;;;;6.20;3.23;;;13.70;99.90;;;;;;5077105;28;20400;-82
2022/06/10 01:30:55;;;;;;;3.53;3.23;;;13.80;99.90;;;;;;5077490;28;20462;-82
2022/06/10 01:34:08;;;;;;;3.23;2.93;;;14.00;99.90;;;;;;5078124;28;20435;-82
2022/06/10 01:37:01;;;;;;;5.20;3.43;;;13.90;99.90;;;;;;5078440;28;20380;-82
2022/06/10 01:39:58;;;;;;;2.97;2.70;;;13.60;99.90;;;;;;5077837;28;20840;-82
2022/06/10 01:42:59;;;;;;;5.53;3.20;;;13.70;99.90;;;;;;5077964;28;20523;-82
2022/06/10 01:45:56;;;;;;;2.30;2.10;;;13.60;99.90;;;;;;5077624;28;20380;-82
2022/06/10 01:48:52;;;;;;;3.33;3.00;;;13.60;99.90;;;;;;5078200;28;20439;-82
2022/06/10 01:51:53;;;;;;;3.40;3.10;;;13.60;99.90;;;;;;5078251;28;20459;-82
2022/06/10 01:54:50;;;;;;;2.90;2.70;;;13.60;99.90;;;;;;5077852;28;20408;-82
2022/06/10 01:57:41;;;;;;;5.43;3.07;;;13.60;99.90;;;;;;5077274;28;20484;-83
2022/06/10 02:00:32;;;;;;;3.70;2.60;;;13.50;99.90;;;;;;5079171;28;20452;-82
2022/06/10 02:03:33;;;;;;;7.60;3.57;;;13.20;99.90;;;;;;5079702;28;20401;-82
2022/06/10 02:06:30;;;;;;;3.20;3.00;;;12.90;99.90;;;;;;5083402;28;20454;-82
2022/06/10 02:09:22;;;;;;;3.40;3.03;;;12.90;99.90;;;;;;5082383;28;20393;-82
2022/06/10 02:12:18;;;;;;;3.67;3.20;;;13.00;99.90;;;;;;5080076;28;20389;-82
2022/06/10 02:15:11;;;;;;;3.70;2.90;;;12.90;99.90;;;;;;5080896;28;20417;-82
2022/06/10 02:18:14;;;;;;;6.37;3.07;;;12.80;99.90;;;;;;5084305;28;20444;-82
2022/06/10 02:21:05;;;;;;;3.33;2.87;;;12.90;99.90;;;;;;5085371;28;20451;-82
2022/06/10 02:23:58;;;;;;;4.37;3.50;;;12.80;99.90;;;;;;5083861;28;20397;-82
2022/06/10 02:26:45;;;;;;;3.70;2.70;;;12.80;99.90;;;;;;5091019;28;20398;-79
2022/06/10 02:29:37;;;;;;;3.47;3.17;;;12.90;99.90;;;;;;5092224;28;20405;-82
2022/06/10 02:32:23;;;;;;;3.47;2.93;;;12.80;99.90;;;;;;5096291;28;20425;-80
2022/06/10 02:35:10;;;;;;;4.13;3.20;;;12.80;99.90;;;;;;5096890;28;20401;-80
2022/06/10 02:38:09;;;;;;;3.93;3.53;;;12.80;99.90;;;;;;5097251;28;20393;-82
2022/06/10 02:41:03;;;;;;;4.97;3.30;;;13.00;99.90;;;;;;5061335;28;20476;-82
2022/06/10 02:44:05;;;;;;;3.43;2.80;;;12.80;99.90;;;;;;5091292;28;20428;-83
2022/06/10 02:47:21;;;;;;;3.07;2.83;;;12.80;99.90;;;;;;5091398;28;20400;-82
2022/06/10 02:50:07;;;;;;;3.43;2.93;;;12.80;99.90;;;;;;5091119;28;20400;-80
2022/06/10 02:52:53;;;;;;;3.60;3.10;;;12.80;99.90;;;;;;5083244;28;20425;-81
2022/06/10 02:55:38;;;;;;;3.20;2.90;;;13.00;99.90;;;;;;5078095;28;20436;-82
2022/06/10 03:01:42;;;;;;;5.60;3.30;;;13.40;99.90;;;;;;5077725;28;20901;-82
2022/06/10 03:05:01;;;;;;;3.40;3.00;;;13.50;99.90;;;;;;5077922;28;20496;-81
2022/06/10 03:08:08;;;;;;;4.10;3.20;;;13.60;99.90;;;;;;5076916;28;20524;-82
2022/06/10 03:11:14;;;;;;;6.20;3.20;;;13.40;99.90;;;;;;5079092;28;20431;-83
2022/06/10 03:14:17;;;;;;;5.43;2.43;;;13.20;99.90;;;;;;5077499;28;20393;-82
2022/06/10 03:17:29;;;;;;;3.80;3.37;;;12.80;99.90;;;;;;5078201;28;20412;-82
2022/06/10 03:20:27;;;;;;;3.77;3.17;;;12.80;99.90;;;;;;5077143;28;20494;-82
2022/06/10 03:23:22;;;;;;;3.50;2.93;;;12.60;99.90;;;;;;5076666;28;20423;-82
2022/06/10 03:26:21;;;;;;;3.63;2.70;;;12.40;99.90;;;;;;5075810;28;20392;-82
2022/06/10 03:29:17;;;;;;;4.00;2.87;;;12.40;99.90;;;;;;5077281;28;20801;-82
2022/06/10 03:32:34;;;;;;;3.83;2.60;;;12.30;99.90;;;;;;5079959;28;20481;-82
2022/06/10 03:35:27;;;;;;;4.37;2.90;;;12.30;99.90;;;;;;5080634;28;20393;-82
2022/06/10 03:38:13;;;;;;;3.53;3.23;;;12.20;99.90;;;;;;5079161;28;20468;-82
2022/06/10 03:41:01;;;;;;;4.33;3.93;;;12.20;99.90;;;;;;5080112;28;20569;-82
2022/06/10 03:43:48;;;;;;;3.30;3.00;;;12.00;99.90;;;;;;5080029;28;20435;-82
2022/06/10 03:46:34;;;;;;;3.30;3.00;;;11.80;99.90;;;;;;5070576;28;20417;-82
2022/06/10 03:49:23;;;;;;;2.80;2.60;;;11.70;99.90;;;;;;5088718;28;20457;-80
2022/06/10 03:52:15;;;;;;;4.10;2.97;;;11.50;99.90;;;;;;5092357;28;20396;-81
2022/06/10 03:55:00;;;;;;;11.70;4.23;;;11.60;99.90;;;;;;5092566;28;20400;-82
2022/06/10 03:57:46;;;;;;;3.47;3.17;;;12.00;99.90;;;;;;5070693;28;20483;-82
2022/06/10 04:00:32;;;;;;;4.57;3.37;;;11.90;99.90;;;;;;5071751;28;20518;-81
2022/06/10 04:03:17;;;;;;;3.73;3.30;;;11.70;99.90;;;;;;5073310;28;20386;-81
2022/06/10 04:06:03;;;;;;;3.93;3.13;;;11.80;99.90;;;;;;5073747;28;20409;-82
2022/06/10 04:08:48;;;;;;;4.07;3.73;;;11.60;99.90;;;;;;5073277;28;20405;-80
2022/06/10 04:11:33;;;;;;;3.27;3.00;;;11.60;99.90;;;;;;5074433;28;20397;-80
2022/06/10 04:14:18;;;;;;;5.30;3.87;;;11.70;99.90;;;;;;5071380;28;20441;-81
2022/06/10 04:17:03;;;;;;;5.47;4.00;;;12.10;99.90;;;;;;5067673;28;20393;-83
2022/06/10 04:19:48;;;;;;;4.33;3.27;;;12.10;99.90;;;;;;5071269;28;20464;-82
2022/06/10 04:22:33;;;;;;;5.13;3.70;;;12.40;99.90;;;;;;5072223;28;20452;-81
2022/06/10 04:25:18;;;;;;;4.50;3.60;;;12.50;99.90;;;;;;5065868;28;20471;-82
2022/06/10 04:28:02;;;;;;;3.77;3.43;;;12.60;99.90;;;;;;5072846;28;20385;-82
2022/06/10 04:30:50;;;;;;;4.30;3.67;;;12.70;99.90;;;;;;5067964;28;20445;-83
2022/06/10 04:33:35;;;;;;;4.50;3.90;;;12.50;99.90;;;;;;5060753;28;20390;-82
2022/06/10 04:36:20;;;;;;;3.13;2.90;;;12.70;99.90;;;;;;5060285;28;20402;-83
2022/06/10 04:39:05;;;;;;;4.83;4.33;;;12.80;99.90;;;;;;5061816;28;20572;-82
2022/06/10 04:41:50;;;;;;;4.33;3.90;;;12.90;99.90;;;;;;5045565;28;20951;-82
2022/06/10 04:44:34;;;;;;;7.67;4.37;;;13.10;99.90;;;;;;5061783;28;20394;-82
2022/06/10 04:47:19;;;;;;;3.47;3.17;;;13.20;99.90;;;;;;5071851;28;20392;-79
2022/06/10 04:50:05;;;;;;;4.33;3.73;;;13.30;99.90;;;;;;5075550;28;20390;-82
2022/06/10 04:52:51;;;;;;;3.77;3.37;;;13.50;99.90;;;;;;5078521;28;20509;-83
2022/06/10 04:55:36;;;;;;;4.90;3.80;;;13.80;99.90;;;;;;5072871;28;20436;-80
2022/06/10 04:58:21;;;;;;;11.63;4.70;;;13.90;99.90;;;;;;5088333;28;20452;-80
2022/06/10 05:01:06;;;;;;;5.73;3.87;;;14.00;99.90;;;;;;5097280;28;20830;-79
2022/06/10 05:03:51;;;;;;;4.90;4.40;;;14.20;99.90;;;;;;5089603;28;20443;-79
2022/06/10 05:06:35;;;;;;;3.77;3.37;;;14.30;99.90;;;;;;5087010;28;20396;-81
2022/06/10 05:09:20;;;;;;;4.27;3.87;;;14.40;99.90;;;;;;5073690;28;20405;-80
2022/06/10 05:12:05;;;;;;;6.57;3.83;;;14.60;99.90;;;;;;5077260;28;20459;-80
2022/06/10 05:14:50;;;;;;;4.57;4.10;;;14.60;99.90;;;;;;5076204;28;20469;-78
2022/06/10 05:17:34;;;;;;;3.43;3.20;;;14.40;99.90;;;;;;5083224;28;20464;-80
2022/06/10 05:20:25;;;;;;;5.73;3.87;;;14.40;99.90;;;;;;5074186;28;20460;-82
2022/06/10 05:23:13;;;;;;;6.77;3.23;;;14.50;99.90;;;;;;5075748;28;20460;-82
2022/06/10 05:25:58;;;;;;;4.60;4.13;;;14.40;99.90;;;;;;5079785;28;20443;-82
2022/06/10 05:28:44;;;;;;;4.20;3.83;;;14.40;99.90;;;;;;5075149;28;20479;-82
2022/06/10 05:31:29;;;;;;;6.73;4.00;;;14.30;99.90;;;;;;5079837;28;20445;-83
2022/06/10 05:37:19;;;;;;;5.10;4.67;;;14.50;99.90;;;;;;5070834;28;20436;-82
2022/06/10 05:40:06;;;;;;;4.90;3.50;;;14.40;99.90;;;;;;5077658;28;20473;-83
2022/06/10 05:43:00;;;;;;;6.07;5.50;;;14.70;99.90;;;;;;5043898;28;20414;-83
2022/06/10 05:45:44;;;;;;;5.10;4.60;;;15.00;99.90;;;;;;5062818;28;20815;-83
2022/06/10 05:48:29;;;;;;;8.13;5.73;;;15.30;99.90;;;;;;5059091;28;20384;-83
2022/06/10 05:51:13;;;;;;;5.73;5.20;;;15.60;99.90;;;;;;5073298;28;20456;-83
2022/06/10 05:53:58;;;;;;;6.10;5.37;;;15.60;99.90;;;;;;5076341;28;20431;-82
2022/06/10 05:56:44;;;;;;;5.40;4.90;;;15.30;99.90;;;;;;5074520;28;20499;-83
2022/06/10 05:59:29;;;;;;;6.77;5.10;;;15.10;99.90;;;;;;5077112;28;20448;-82
2022/06/10 06:02:17;;;;;;;7.30;5.07;;;15.00;99.90;;;;;;5076780;28;20400;-82
2022/06/10 06:05:02;;;;;;;7.57;6.20;;;15.10;99.90;;;;;;5066299;28;21051;-83
2022/06/10 06:07:47;;;;;;;6.43;5.83;;;15.30;99.90;;;;;;5050407;28;20398;-82
2022/06/10 06:10:32;;;;;;;14.97;6.33;;;15.30;99.90;;;;;;5078501;28;20389;-83
2022/06/10 06:13:17;;;;;;;7.63;5.90;;;15.50;99.90;;;;;;5060450;28;20413;-82
2022/06/10 06:16:03;;;;;;;21.23;5.70;;;15.60;99.90;;;;;;5077397;28;20519;-82
2022/06/10 06:18:48;;;;;;;8.40;7.10;;;15.90;99.90;;;;;;5068129;28;21036;-83
2022/06/10 06:21:32;;;;;;;12.67;6.53;;;16.10;99.90;;;;;;5057132;28;20461;-83
2022/06/10 06:24:17;;;;;;;13.33;7.27;;;16.20;99.90;;;;;;5066596;28;20446;-83
2022/06/10 06:27:02;;;;;;;9.20;5.70;;;15.90;99.90;;;;;;5070054;28;20456;-83
2022/06/10 06:29:47;;;;;;;7.57;6.37;;;15.90;99.90;;;;;;5065142;28;20437;-83
2022/06/10 06:32:31;;;;;;;6.97;5.40;;;16.00;99.90;;;;;;5060304;28;20488;-84
2022/06/10 06:35:16;;;;;;;5.70;5.20;;;16.10;99.90;;;;;;5072530;28;20448;-83
2022/06/10 06:38:02;;;;;;;7.50;6.20;;;16.20;99.90;;;;;;5076793;28;20471;-81
2022/06/10 06:40:47;;;;;;;14.80;5.83;;;16.40;99.90;;;;;;5072951;28;20972;-82
2022/06/10 06:43:31;;;;;;;9.03;6.60;;;16.50;99.90;;;;;;5070503;28;20583;-83
2022/06/10 06:46:18;;;;;;;9.40;6.80;;;16.80;99.90;;;;;;5067377;28;20441;-83
2022/06/10 06:49:06;;;;;;;7.37;6.03;;;16.70;99.90;;;;;;5063357;28;20505;-80
2022/06/10 06:51:51;;;;;;;7.03;5.20;;;16.80;99.90;;;;;;5062892;28;20524;-82
2022/06/10 06:54:37;;;;;;;9.30;5.80;;;16.90;99.90;;;;;;5070868;28;20507;-83
2022/06/10 06:57:25;;;;;;;5.73;5.23;;;17.10;99.90;;;;;;5067007;28;20511;-83
2022/06/10 07:00:14;;;;;;;15.07;6.30;;;17.10;99.90;;;;;;5069982;28;20539;-83
2022/06/10 07:02:58;;;;;;;6.17;5.53;;;17.10;99.90;;;;;;5064761;28;20559;-83
2022/06/10 07:05:43;;;;;;;5.87;5.37;;;17.30;99.90;;;;;;5053133;28;20440;-84
2022/06/10 07:08:31;;;;;;;6.63;4.70;;;17.40;99.90;;;;;;5076426;28;20818;-83
2022/06/10 07:11:17;;;;;;;8.50;6.00;;;17.50;99.90;;;;;;5049040;28;20836;-82
2022/06/10 07:14:02;;;;;;;5.70;5.20;;;17.50;99.90;;;;;;5048200;28;20619;-83
2022/06/10 07:16:47;;;;;;;6.50;4.73;;;17.50;99.90;;;;;;5051347;28;20460;-83
2022/06/10 07:19:32;;;;;;;6.43;5.07;;;17.50;99.90;;;;;;5051705;28;20569;-82
2022/06/10 07:22:17;;;;;;;14.07;4.47;;;17.40;99.90;;;;;;5049979;28;20473;-83
2022/06/10 07:25:02;;;;;;;8.40;5.33;;;17.40;99.90;;;;;;5049350;28;20464;-83
2022/06/10 07:27:52;;;;;;;5.73;5.23;;;17.70;99.90;;;;;;5037270;28;20572;-82
2022/06/10 07:30:38;;;;;;;9.40;5.67;;;18.00;99.90;;;;;;5045863;28;21132;-81
2022/06/10 07:33:23;;;;;;;7.43;5.20;;;18.10;99.90;;;;;;5037629;28;20436;-82
2022/06/10 07:36:10;;;;;;;6.03;5.07;;;18.20;99.90;;;;;;5048536;28;21112;-83
2022/06/10 07:38:54;;;;;;;6.80;6.10;;;18.20;99.90;;;;;;5053731;28;20429;-81
2022/06/10 07:44:37;;;;;;;5.87;4.50;;;18.00;99.90;;;;;;5068246;28;20479;-81
2022/06/10 07:47:23;;;;;;;5.80;5.10;;;18.10;99.90;;;;;;5058351;28;21789;-81
2022/06/10 07:50:07;;;;;;;5.53;4.60;;;18.20;99.90;;;;;;5071030;28;20972;-82
2022/06/10 07:52:52;;;;;;;5.00;4.17;;;18.50;99.90;;;;;;5068475;28;20941;-84
2022/06/10 07:55:37;;;;;;;6.17;5.30;;;18.70;99.90;;;;;;5070920;28;20484;-85
2022/06/10 07:58:24;;;;;;;8.27;4.77;;;18.80;99.90;;;;;;5070221;28;20492;-84
2022/06/10 08:01:09;;;;;;;5.27;4.80;;;19.00;99.90;;;;;;5072398;28;20516;-84
2022/06/10 08:03:53;;;;;;;13.07;5.10;;;19.20;99.90;;;;;;5063387;28;20784;-84
2022/06/10 08:06:41;;;;;;;6.43;5.13;;;19.20;99.90;;;;;;5072939;28;20475;-83
2022/06/10 08:09:26;;;;;;;7.00;4.20;;;19.40;99.90;;;;;;5072778;28;20425;-83
2022/06/10 08:12:11;;;;;;;4.27;3.97;;;19.40;99.90;;;;;;5070723;28;20588;-83
2022/06/10 08:14:55;;;;;;;4.90;3.90;;;19.20;99.90;;;;;;5067635;28;20444;-83
2022/06/10 08:17:40;;;;;;;3.97;3.63;;;19.40;99.90;;;;;;5072860;28;20465;-82
2022/06/10 08:23:41;;;;;;;5.37;3.57;;;19.30;99.90;;;;;;5073756;28;20487;-81
2022/06/10 08:26:29;;;;;;;3.70;2.97;;;19.50;99.90;;;;;;5074552;28;20421;-79
2022/06/10 08:29:13;;;;;;;3.47;2.77;;;19.60;99.90;;;;;;5081762;28;20420;-79
2022/06/10 08:31:58;;;;;;;5.80;3.27;;;19.50;99.90;;;;;;5082724;28;20465;-80
2022/06/10 08:34:43;;;;;;;4.47;3.50;;;19.40;99.90;;;;;;5085236;28;20500;-82
2022/06/10 08:37:27;;;;;;;6.30;3.57;;;19.70;99.90;;;;;;5082666;28;20456;-80
2022/06/10 08:40:22;;;;;;;5.00;2.90;;;19.60;99.90;;;;;;5086248;28;20937;-82
2022/06/10 08:43:34;;;;;;;3.07;2.80;;;19.40;99.90;;;;;;5077587;28;20480;-81
2022/06/10 08:46:47;;;;;;;2.60;2.40;;;19.70;99.90;;;;;;5077918;28;20428;-82
2022/06/10 08:49:57;;;;;;;4.37;2.90;;;19.90;99.90;;;;;;5082444;28;20496;-81
2022/06/10 08:53:17;;;;;;;7.23;4.07;;;20.00;99.90;;;;;;5087248;28;20537;-81
2022/06/10 08:56:36;;;;;;;10.30;3.23;;;19.80;99.90;;;;;;5085820;28;20460;-82
2022/06/10 08:59:28;;;;;;;3.00;2.80;;;19.90;99.90;;;;;;5083194;28;20488;-83
2022/06/10 09:02:27;;;;;;;7.43;3.37;;;20.40;99.90;;;;;;5063602;28;20502;-82
2022/06/10 09:05:20;;;;;;;5.20;3.40;;;20.20;99.90;;;;;;5079736;28;20534;-83
2022/06/10 09:08:18;;;;;;;5.33;3.30;;;20.20;99.90;;;;;;5084181;28;20425;-82
2022/06/10 09:11:27;;;;;;;3.27;3.07;;;20.60;99.90;;;;;;5071156;28;20425;-80
2022/06/10 09:14:22;;;;;;;5.23;2.77;;;20.80;99.90;;;;;;5064584;28;20496;-80
2022/06/10 09:17:12;;;;;;;3.37;2.93;;;20.80;99.90;;;;;;5065168;28;20460;-82
2022/06/10 09:20:11;;;;;;;3.60;2.80;;;20.90;99.90;;;;;;5068005;28;20457;-80
2022/06/10 09:23:05;;;;;;;3.50;2.70;;;21.00;99.90;;;;;;5069597;28;20429;-79
2022/06/10 09:25:55;;;;;;;2.73;2.30;;;21.20;99.90;;;;;;5070197;28;20440;-81
2022/06/10 09:28:42;;;;;;;2.73;2.53;;;21.30;99.90;;;;;;5057143;28;20586;-80
2022/06/10 09:31:40;;;;;;;4.13;2.43;;;21.00;99.90;;;;;;5073496;28;20448;-79
2022/06/10 09:34:46;;;;;;;3.33;2.57;;;20.80;99.90;;;;;;5070510;28;20437;-79
2022/06/10 09:37:54;;;;;;;4.30;2.93;;;20.50;99.90;;;;;;5030436;28;20501;-81
2022/06/10 09:40:59;;;;;;;2.20;2.10;;;20.90;99.90;;;;;;5033971;28;20528;-79
2022/06/10 09:44:09;;;;;;;2.40;2.20;;;21.30;99.90;;;;;;5038137;28;20486;-80
2022/06/10 09:47:27;;;;;;;2.60;2.40;;;21.50;99.90;;;;;;5044461;28;20441;-81
2022/06/10 09:50:28;;;;;;;2.73;2.50;;;21.70;99.90;;;;;;5042483;28;20848;-81
2022/06/10 09:53:50;;;;;;;2.63;2.43;;;21.70;99.90;;;;;;5043601;28;20544;-80
2022/06/10 09:56:56;;;;;;;8.30;3.70;;;21.80;99.90;;;;;;5028035;28;20472;-80
2022/06/10 10:00:06;;;;;;;4.10;2.70;;;21.90;99.90;;;;;;5018821;28;20519;-82
2022/06/10 10:03:22;;;;;;;2.80;2.30;;;22.20;99.90;;;;;;5039947;28;20437;-81
2022/06/10 10:06:26;;;;;;;2.17;2.00;;;22.00;99.90;;;;;;5040453;28;20434;-82
2022/06/10 10:09:33;;;;;;;2.93;2.40;;;22.50;99.90;;;;;;5050102;28;20513;-82
2022/06/10 10:12:32;;;;;;;2.70;2.30;;;22.20;99.90;;;;;;5065763;28;20563;-79
2022/06/10 10:15:34;;;;;;;6.23;3.00;;;22.40;99.90;;;;;;5079284;28;20420;-82
2022/06/10 10:18:43;;;;;;;3.47;2.33;;;22.70;99.90;;;;;;5055343;28;20432;-82
2022/06/10 10:21:48;;;;;;;5.03;2.77;;;22.60;99.90;;;;;;5067725;28;20450;-83
2022/06/10 10:24:39;;;;;;;2.47;2.27;;;22.10;99.90;;;;;;5071745;28;20432;-83
2022/06/10 10:27:30;;;;;;;3.20;2.47;;;22.20;99.90;;;;;;5070292;28;20503;-83
2022/06/10 10:30:23;;;;;;;6.20;2.70;;;22.40;99.90;;;;;;5065885;28;20508;-83
2022/06/10 10:33:12;;;;;;;3.07;2.67;;;22.70;99.90;;;;;;5052153;28;20551;-83
2022/06/10 10:35:59;;;;;;;3.10;2.80;;;22.90;99.90;;;;;;5063919;28;20456;-84
2022/06/10 10:38:46;;;;;;;2.70;2.20;;;23.30;99.90;;;;;;5070425;28;20575;-83
2022/06/10 10:41:36;;;;;;;4.27;2.33;;;23.50;99.90;;;;;;5072664;28;20412;-82
2022/06/10 10:44:32;;;;;;;3.40;2.90;;;23.50;99.90;;;;;;5069885;28;20448;-83
2022/06/10 10:47:25;;;;;;;4.10;2.40;;;23.60;99.90;;;;;;5060800;28;20421;-82
2022/06/10 10:50:21;;;;;;;3.00;2.40;;;23.90;99.90;;;;;;5064950;28;20577;-81
2022/06/10 10:53:22;;;;;;;5.27;2.60;;;23.90;99.90;;;;;;5072965;28;20445;-82
2022/06/10 10:56:12;;;;;;;2.00;1.90;;;24.20;99.90;;;;;;5092669;22;20669;-82
2022/06/10 10:58:57;;;;;;;4.03;2.53;;;24.50;99.90;;;;;;5039185;28;20494;-81
2022/06/10 11:01:47;;;;;;;2.33;2.13;;;24.60;99.90;;;;;;5038991;28;20497;-82
2022/06/10 11:04:38;;;;;;;2.70;2.03;;;24.30;99.90;;;;;;5018591;28;20430;-82
2022/06/10 11:07:25;;;;;;;2.00;1.90;;;24.50;99.90;;;;;;5031598;28;20905;-82
2022/06/10 11:10:23;;;;;;;2.67;2.47;;;24.60;99.90;;;;;;5036569;28;20486;-81
2022/06/10 11:13:17;;;;;;;2.57;2.20;;;24.90;99.90;;;;;;5045372;28;20441;-81
2022/06/10 11:16:31;;;;;;;2.40;2.20;;;25.10;99.90;;;;;;5035705;28;20587;-79
2022/06/10 11:19:25;;;;;;;1.80;1.70;;;24.90;99.70;;;;;;5048795;28;20512;-81
2022/06/10 11:22:19;;;;;;;4.20;2.10;;;24.90;99.50;;;;;;5076777;28;20446;-82
2022/06/10 11:25:30;;;;;;;2.10;1.90;;;24.70;98.90;;;;;;5032377;28;20565;-82
2022/06/10 11:28:26;;;;;;;2.80;2.60;;;24.80;99.90;;;;;;5059534;28;20547;-82
2022/06/10 11:31:21;;;;;;;2.60;2.17;;;24.80;99.90;;;;;;5045815;28;20449;-83
2022/06/10 11:34:16;;;;;;;2.27;2.10;;;25.10;99.30;;;;;;5062071;28;20461;-82
2022/06/10 11:37:19;;;;;;;2.07;1.90;;;25.00;96.80;;;;;;5054599;28;20468;-83
2022/06/10 11:40:14;;;;;;;2.07;1.97;;;24.70;98.90;;;;;;5068821;28;20849;-82
2022/06/10 11:43:29;;;;;;;2.23;2.13;;;24.20;98.60;;;;;;5040880;28;20966;-82
2022/06/10 11:46:30;;;;;;;2.40;2.27;;;23.70;98.00;;;;;;5063873;28;20457;-82
2022/06/10 11:49:26;;;;;;;2.90;2.17;;;23.90;99.90;;;;;;5068419;28;20417;-83
2022/06/10 11:52:32;;;;;;;3.43;2.30;;;23.90;99.90;;;;;;5035765;28;20454;-81
2022/06/10 11:55:28;;;;;;;2.70;2.30;;;23.80;99.90;;;;;;5032821;28;20496;-82
2022/06/10 12:01:29;;;;;;;4.67;3.27;;;24.00;99.90;;;;;;5049365;28;20453;-81
2022/06/10 12:04:22;;;;;;;3.53;2.23;;;24.30;99.90;;;;;;5026082;28;20483;-83
2022/06/10 12:07:15;;;;;;;2.77;1.90;;;24.70;98.40;;;;;;5027642;28;21239;-85
2022/06/10 12:10:07;;;;;;;2.13;1.90;;;24.70;96.60;;;;;;5017066;28;20526;-84
2022/06/10 12:12:55;;;;;;;2.00;1.90;;;24.10;97.30;;;;;;5020949;28;20809;-83
2022/06/10 12:15:48;;;;;;;2.23;1.87;;;25.00;97.40;;;;;;4990512;28;20435;-83
2022/06/10 12:18:40;;;;;;;2.03;1.70;;;24.70;93.50;;;;;;5020019;28;20569;-83
2022/06/10 12:21:28;;;;;;;2.57;2.37;;;25.50;92.60;;;;;;5000077;28;20468;-83
2022/06/10 12:24:16;;;;;;;2.10;2.00;;;25.80;91.00;;;;;;4999356;28;20478;-83
2022/06/10 12:27:03;;;;;;;1.77;1.63;;;26.10;91.70;;;;;;5004230;28;20577;-80
2022/06/10 12:29:56;;;;;;;1.90;1.80;;;26.10;90.60;;;;;;5002319;28;20438;-83
2022/06/10 12:32:51;;;;;;;2.20;2.03;;;26.70;87.00;;;;;;5001614;28;20462;-83
2022/06/10 12:35:37;;;;;;;2.00;1.90;;;25.80;87.20;;;;;;5015102;28;20438;-82
2022/06/10 12:38:26;;;;;;;1.83;1.73;;;26.00;92.60;;;;;;5016422;28;20463;-80
2022/06/10 12:41:17;;;;;;;6.57;2.40;;;26.90;82.70;;;;;;5015780;28;20498;-83
2022/06/10 12:44:08;;;;;;;1.77;1.67;;;26.70;85.30;;;;;;5009495;28;20475;-83
2022/06/10 12:46:58;;;;;;;2.97;2.43;;;26.90;79.60;;;;;;5005462;28;20505;-82
2022/06/10 12:49:46;;;;;;;1.90;1.77;;;26.50;79.60;;;;;;5012927;28;20486;-81
2022/06/10 12:52:48;;;;;;;1.97;1.77;;;26.70;77.60;;;;;;5017364;28;20419;-80
2022/06/10 12:55:45;;;;;;;3.50;2.00;;;26.60;79.10;;;;;;5007439;28;20970;-83
2022/06/10 12:58:55;;;;;;;3.10;2.80;;;25.80;79.30;;;;;;5033086;28;20544;-80
2022/06/10 13:01:56;;;;;;;2.20;2.10;;;25.60;79.70;;;;;;5006270;28;20458;-81
2022/06/10 13:05:02;;;;;;;1.70;1.60;;;25.50;78.50;;;;;;5014186;28;20519;-81
2022/06/10 13:07:49;;;;;;;5.10;2.13;;;25.70;83.10;;;;;;4992977;28;20444;-80
2022/06/10 13:10:45;;;;;;;1.50;1.37;;;26.40;79.70;;;;;;5003299;28;21016;-80
2022/06/10 13:13:34;;;;;;;2.30;2.03;;;26.20;78.10;;;;;;5003857;28;20442;-82
2022/06/10 13:16:40;;;;;;;2.30;1.87;;;26.80;77.90;;;;;;5003966;28;20606;-81
2022/06/10 13:19:34;;;;;;;1.97;1.87;;;27.20;74.20;;;;;;4995972;28;20658;-82
2022/06/10 13:22:33;;;;;;;2.40;2.20;;;25.50;77.10;;;;;;4991869;28;20446;-81
2022/06/10 13:25:30;;;;;;;3.07;2.80;;;26.10;76.30;;;;;;4993634;28;20491;-81
2022/06/10 13:28:23;;;;;;;2.70;2.00;;;25.60;80.30;;;;;;4996116;28;20434;-82
2022/06/10 13:31:16;;;;;;;2.50;2.07;;;27.80;73.00;;;;;;4999755;28;20489;-81
2022/06/10 13:34:06;;;;;;;3.70;1.77;;;28.00;71.80;;;;;;4995481;28;20626;-83
2022/06/10 13:36:55;;;;;;;4.15;2.28;;;28.70;68.40;;;;;;4992311;28;20200;-84
2022/06/10 13:40:03;;;;;;;5.28;1.65;;;28.40;64.70;;;;;;4995186;28;20208;-83
2022/06/10 13:42:56;;;;;;;2.35;2.13;;;27.10;67.50;;;;;;4955829;28;20233;-84
2022/06/10 13:45:46;;;;;;;4.03;1.70;;;27.40;66.60;;;;;;4980885;28;20716;-83
2022/06/10 13:48:45;;;;;;;3.88;2.20;;;28.60;69.40;;;;;;4957552;28;20271;-82
2022/06/10 13:51:40;;;;;;;3.15;2.03;;;29.30;66.80;;;;;;4924838;29;20229;-82
2022/06/10 13:54:29;;;;;;;2.85;2.35;;;29.60;65.30;;;;;;4915931;29;20228;-87
2022/06/10 13:57:20;;;;;;;2.10;2.00;;;29.10;69.40;;;;;;4908467;29;20231;-86
2022/06/10 14:00:09;;;;;;;2.38;1.60;;;29.50;62.90;;;;;;4914643;29;20255;-85
2022/06/10 14:02:55;;;;;;;5.32;1.60;;;28.50;62.80;;;;;;4919212;29;20715;-81
2022/06/10 14:05:40;;;;;;;2.05;1.88;;;28.50;62.10;;;;;;4919445;29;20375;-82
2022/06/10 14:08:29;;;;;;;2.08;1.98;;;27.90;63.10;;;;;;4956550;29;20233;-81
2022/06/10 14:11:27;;;;;;;3.83;1.80;;;27.80;66.80;;;;;;4928501;29;20254;-82
2022/06/10 14:14:30;;;;;;;2.00;1.90;;;27.20;66.30;;;;;;4964353;28;20571;-81
2022/06/10 14:17:22;;;;;;;1.60;1.50;;;26.80;64.40;;;;;;4931259;29;20443;-82
2022/06/10 14:20:07;;;;;;;1.73;1.63;;;27.20;65.00;;;;;;4954278;28;20471;-80
2022/06/10 14:23:01;;;;;;;1.83;1.50;;;27.70;61.80;;;;;;4948045;29;20932;-82
2022/06/10 14:26:15;;;;;;;3.17;2.20;;;27.60;64.80;;;;;;4964300;28;20466;-82
2022/06/10 14:29:15;;;;;;;4.37;2.03;;;27.60;63.50;;;;;;4991462;28;20492;-82
2022/06/10 14:32:04;;;;;;;4.73;1.93;;;26.60;62.20;;;;;;5003462;28;20439;-82
2022/06/10 14:34:50;;;;;;;4.60;1.80;;;26.90;66.60;;;;;;4992446;28;20459;-80
2022/06/10 14:37:38;;;;;;;2.00;1.90;;;27.50;65.80;;;;;;4975468;28;20463;-83
2022/06/10 14:40:23;;;;;;;1.60;1.50;;;27.80;63.80;;;;;;4977872;28;20440;-82
2022/06/10 14:43:26;;;;;;;4.47;1.80;;;27.90;65.50;;;;;;5004405;28;20447;-83
2022/06/10 14:46:19;;;;;;;1.67;1.57;;;28.30;66.20;;;;;;4999481;28;20526;-82
2022/06/10 14:49:25;;;;;;;1.80;1.70;;;28.20;63.50;;;;;;5037528;28;20560;-81
2022/06/10 14:52:17;;;;;;;1.97;1.70;;;27.80;62.90;;;;;;5036251;28;20429;-81
2022/06/10 14:55:03;;;;;;;2.27;2.07;;;27.40;66.00;;;;;;5031551;28;20422;-82
2022/06/10 14:57:58;;;;;;;1.70;1.60;;;26.90;64.20;;;;;;4998909;28;20556;-79
2022/06/10 15:00:46;;;;;;;1.60;1.50;;;26.60;66.60;;;;;;5011058;28;20457;-80
2022/06/10 15:03:30;;;;;;;2.07;1.87;;;26.60;66.60;;;;;;5024300;28;20425;-83
2022/06/10 15:06:26;;;;;;;1.73;1.63;;;26.60;65.90;;;;;;5019202;28;20516;-83
2022/06/10 15:09:25;;;;;;;1.83;1.60;;;26.70;66.20;;;;;;5023422;28;20422;-83
2022/06/10 15:12:27;;;;;;;1.67;1.57;;;26.00;66.10;;;;;;5026937;28;20488;-81